メインページ
METAR-TAF:

METAR-TAF

空港 :

ラパス, ボリビア

エル・アルト国際空港

緯度: 16-31S, 経度: 068-11W, 海抜: 4058m

現時点の気象観測

当レポートは7時間26分前の14:00(UTC)に作成
西/南西の風 5kt
気温 12°C
湿度 54%
気圧 1038 hPa
視程10km以上
高度1500ftの雲は散在している

METAR: SLLP 201400Z 24005KT 9999 SCT015 12/03 Q1038

時間: 17:26 (21:26 UTC)

予報

当レポートは11時間26分前の10:00(UTC)に作成
予報は20日の 12時(UTC)から 21日の 12時(UTC)まで有効
南東の風 7kt
視程10km以上
高度1500ftの雲はほとんどない
20日の 18時(UTC)から 20日の 22時(UTC)まで一時的に
北東の風 12kt、最大22ktの突風を伴う
視程: 8000m
高度1700ftの雲は散在している
高度2000ftの雲はほとんどない, 積乱雲.
高度7000ftの雲は散在している
20日の 23時(UTC)から 21日の 01時(UTC)まで徐々に
東/北東の風 5kt
視程10km以上
高度1500ftの雲はほとんどない
高度1700ftの雲はほとんどない, 積乱雲.
21日の 06時(UTC)から 21日の 10時(UTC)まで一時的に
視程: 4000m
高度200ftの雲はほとんどない
高度1700ftの雲はほとんどない, 積乱雲.
近辺で霧

TAF: SLLP 201000Z 2012/2112 13007KT 9999 FEW015 TX16/2020Z TN01/2110Z TEMPO 2018/2022 04012G22KT 8000 VCTSSH SCT017 FEW020CB SCT070 BECMG 2023/2101 07005KT 9999 NSW FEW015 FEW017CB TEMPO 2106/2110 4000E VCFG FEW002 FEW017CB

4,000以上の空港の気象観測と天気予報(METAR報とTAF報)

利用可能な観測所は地図上に黄色い丸と赤い丸で示す。

丸の上にカーソルを重ねると観測所名を参照できる。

次にクリックすると気象観測と天気予報を参照できる。

マップの切り替え:黒色「×」印の緑ボタンをクリックして拡大、「-」印の緑ボタンをクリックして縮小、緑色の三角印をクリックして隣りの地図に切り替え


METAR-TAF: